Pittsburg, Kansas
Current Conditions -  °F | °C
As of 9:15 AM on Thursday 18 Dec 2014 (Local Time) from KPTS Reporting Station
Haze Haze  
Wind Chill: 36°   Ceiling: 200
Heat Index: 36°   Visibility: 2mi
Dew Point: 36°   Wind: 0mph
Humidity: 100%   Direction: NA
Pressure: 30.2"   Gusts: NA
Location:  37.41°N, 94.7°W
Report Text: KPTS 181515Z AUTO 00000KT 2SM BR OVC002 02/02 A3020 RMK AO2 T00200021
Loading
Personal Weather Stations






























Interactive Weather Map New forecast layout! Learn more

10-Day Weather Forecast

Advertisements
Track Severe Weather on mobile